Time;durP1;ratioP1;P1;durP2;ratioP2;P2;SDS_P1;SDS_P2;PMS_P1;PMS_P2;Temp;Humidity;BMP_temperature;BMP_pressure;BME280_temperature;BME280_humidity;BME280_pressure;Samples;Min_cycle;Max_cycle;Signal;HPM_P1;HPM_P2
2020/12/02 06:02:42;;;;;;;;;;;;;;;;;;5080252;27;20403;-52
2020/12/02 06:05:11;;;;;;;8.93;1.70;;;;;;;;;;5072133;28;20007;-56
2020/12/02 06:07:51;;;;;;;8.90;1.65;;;;;;;;;;5081407;28;20016;-54
2020/12/02 06:10:18;;;;;;;10.30;1.45;;;;;;;;;;5080947;28;20060;-54
2020/12/02 06:12:45;;;;;;;10.35;1.92;;;;;;;;;;5083342;28;20503;-52
2020/12/02 06:15:19;;;;;;;10.85;1.92;;;;;;;;;;5084106;28;20028;-54
2020/12/02 06:17:45;;;;;;;8.75;1.73;;;;;;;;;;5082594;28;20028;-53
2020/12/02 06:20:11;;;;;;;9.77;2.08;;;;;;;;;;5072122;28;20021;-54
2020/12/02 06:22:53;;;;;;;7.75;1.60;;;;;;;;;;5072034;28;20512;-54
2020/12/02 06:25:37;;;;;;;9.00;1.63;;;;;;;;;;5072074;28;20402;-55
2020/12/02 06:28:03;;;;;;;6.82;1.45;;;;;;;;;;5072089;28;20032;-56
2020/12/02 06:30:30;;;;;;;9.70;1.45;;;;;;;;;;5071847;28;20033;-54
2020/12/02 06:33:00;;;;;;;5.20;1.40;;;;;;;;;;5069214;28;20490;-54
2020/12/02 06:35:26;;;;;;;10.45;1.65;;;;;;;;;;5069639;28;20468;-53
2020/12/02 06:38:12;;;;;;;7.53;1.48;;;;;;;;;;5071752;28;20040;-57
2020/12/02 06:40:45;;;;;;;10.07;2.50;;;;;;;;;;5070922;28;20463;-56
2020/12/02 06:43:14;;;;;;;8.13;1.60;;;;;;;;;;5071648;28;20033;-51
2020/12/02 06:45:41;;;;;;;10.15;1.55;;;;;;;;;;5071700;28;20635;-58
2020/12/02 06:48:26;;;;;;;12.32;1.52;;;;;;;;;;5070441;28;20119;-54
2020/12/02 06:50:57;;;;;;;10.23;1.77;;;;;;;;;;5079540;28;20504;-57
2020/12/02 06:53:24;;;;;;;9.45;1.58;;;;;;;;;;5069415;28;20056;-53
2020/12/02 06:56:00;;;;;;;7.78;1.42;;;;;;;;;;5078837;28;20124;-58
2020/12/02 06:58:26;;;;;;;6.65;1.40;;;;;;;;;;5073284;28;20051;-56
2020/12/02 07:00:54;;;;;;;10.57;2.03;;;;;;;;;;5070849;28;20048;-57
2020/12/02 07:03:36;;;;;;;7.15;1.67;;;;;;;;;;5060652;28;20112;-58
2020/12/02 07:06:05;;;;;;;10.18;1.70;;;;;;;;;;5066369;28;20517;-56
2020/12/02 07:08:33;;;;;;;9.80;1.52;;;;;;;;;;5064279;28;20622;-56
2020/12/02 07:10:59;;;;;;;13.82;1.73;;;;;;;;;;5068501;28;20076;-55
2020/12/02 07:13:27;;;;;;;6.57;1.52;;;;;;;;;;5057944;28;20033;-56
2020/12/02 07:15:53;;;;;;;8.20;2.28;;;;;;;;;;5059593;28;20531;-58
2020/12/02 07:18:21;;;;;;;7.63;2.10;;;;;;;;;;5066194;28;20049;-56
2020/12/02 07:20:48;;;;;;;9.65;1.90;;;;;;;;;;5069578;28;20035;-60
2020/12/02 07:23:17;;;;;;;7.95;1.52;;;;;;;;;;5069173;28;20024;-57
2020/12/02 07:25:43;;;;;;;4.00;1.40;;;;;;;;;;5058195;28;20083;-56
2020/12/02 07:28:17;;;;;;;7.72;1.60;;;;;;;;;;5061998;28;20082;-56
2020/12/02 07:30:45;;;;;;;7.72;1.55;;;;;;;;;;5065363;28;20040;-58
2020/12/02 07:33:28;;;;;;;10.55;1.75;;;;;;;;;;5054778;28;20027;-57
2020/12/02 07:36:14;;;;;;;10.75;1.90;;;;;;;;;;5054495;28;20072;-58
2020/12/02 07:38:41;;;;;;;12.68;1.70;;;;;;;;;;5054656;28;20042;-57
2020/12/02 07:41:20;;;;;;;14.15;2.58;;;;;;;;;;5067341;28;20378;-58
2020/12/02 07:43:48;;;;;;;10.48;3.22;;;;;;;;;;5057915;28;20048;-57
2020/12/02 07:46:14;;;;;;;12.07;3.03;;;;;;;;;;5062460;28;20025;-57
2020/12/02 07:48:41;;;;;;;10.30;2.83;;;;;;;;;;5065357;28;20070;-58
2020/12/02 07:51:10;;;;;;;6.30;2.28;;;;;;;;;;5054559;28;20029;-54
2020/12/02 07:53:39;;;;;;;11.18;2.70;;;;;;;;;;5069174;28;20025;-53
2020/12/02 07:56:11;;;;;;;5.78;2.25;;;;;;;;;;5056898;28;20033;-54
2020/12/02 07:58:42;;;;;;;9.50;2.53;;;;;;;;;;5057317;28;20021;-58
2020/12/02 08:01:24;;;;;;;8.63;2.92;;;;;;;;;;5058054;28;20041;-56
2020/12/02 08:03:51;;;;;;;9.07;3.00;;;;;;;;;;5058651;28;20029;-57
2020/12/02 08:06:56;;;;;;;9.95;3.03;;;;;;;;;;5068319;28;20031;-57
2020/12/02 08:09:22;;;;;;;20.92;4.32;;;;;;;;;;5022360;28;20073;-57
2020/12/02 08:11:49;;;;;;;28.63;4.50;;;;;;;;;;5015278;28;20135;-55
2020/12/02 08:14:27;;;;;;;20.02;4.65;;;;;;;;;;5028000;28;20040;-56
2020/12/02 08:16:56;;;;;;;13.65;5.28;;;;;;;;;;5029127;28;20433;-55
2020/12/02 08:19:48;;;;;;;19.48;4.85;;;;;;;;;;5027785;28;20026;-55
2020/12/02 08:22:33;;;;;;;18.63;5.15;;;;;;;;;;5023564;28;20246;-56
2020/12/02 08:25:11;;;;;;;24.23;5.97;;;;;;;;;;5026503;28;20026;-56
2020/12/02 08:27:37;;;;;;;19.40;6.15;;;;;;;;;;5026182;28;20078;-57
2020/12/02 08:30:11;;;;;;;36.17;7.45;;;;;;;;;;5027863;28;20021;-56
2020/12/02 08:32:41;;;;;;;19.50;6.90;;;;;;;;;;5026592;28;20413;-57
2020/12/02 08:35:40;;;;;;;16.52;7.03;;;;;;;;;;5028746;28;20032;-55
2020/12/02 08:38:06;;;;;;;16.50;6.03;;;;;;;;;;4942178;29;20039;-55
2020/12/02 08:40:40;;;;;;;16.10;5.90;;;;;;;;;;4984222;28;20033;-55
2020/12/02 08:43:25;;;;;;;13.07;5.50;;;;;;;;;;4999539;28;20400;-54
2020/12/02 08:46:11;;;;;;;17.92;5.78;;;;;;;;;;5001025;28;20121;-53
2020/12/02 08:48:38;;;;;;;18.73;6.40;;;;;;;;;;5003166;28;20089;-55
2020/12/02 08:51:07;;;;;;;30.77;7.65;;;;;;;;;;4995527;28;20070;-53
2020/12/02 08:53:33;;;;;;;16.23;6.18;;;;;;;;;;4999372;28;20044;-56
2020/12/02 08:56:00;;;;;;;21.38;6.28;;;;;;;;;;5000063;28;20068;-56
2020/12/02 08:58:26;;;;;;;19.42;6.45;;;;;;;;;;4998972;28;20587;-54
2020/12/02 09:00:53;;;;;;;22.27;5.88;;;;;;;;;;4998761;28;20039;-56
2020/12/02 09:03:22;;;;;;;20.27;5.22;;;;;;;;;;5001397;28;20075;-55
2020/12/02 09:05:48;;;;;;;15.23;5.18;;;;;;;;;;4999072;28;20034;-56
2020/12/02 09:08:14;;;;;;;16.65;5.53;;;;;;;;;;4999070;28;20072;-56
2020/12/02 09:10:40;;;;;;;13.75;5.03;;;;;;;;;;4999609;28;20099;-55
2020/12/02 09:13:06;;;;;;;19.15;5.65;;;;;;;;;;5014516;28;20119;-56
2020/12/02 09:15:32;;;;;;;15.38;5.15;;;;;;;;;;5065748;28;20036;-57
2020/12/02 09:17:59;;;;;;;15.30;4.85;;;;;;;;;;5068479;28;20111;-56
2020/12/02 09:20:27;;;;;;;19.60;7.00;;;;;;;;;;5066580;28;20136;-57
2020/12/02 09:22:54;;;;;;;24.98;7.35;;;;;;;;;;5067890;28;20032;-55
2020/12/02 09:25:20;;;;;;;18.10;6.60;;;;;;;;;;5066844;28;20020;-55
2020/12/02 09:27:46;;;;;;;20.75;6.35;;;;;;;;;;5065032;28;20274;-57
2020/12/02 09:30:13;;;;;;;17.60;6.95;;;;;;;;;;5064836;28;20028;-55
2020/12/02 09:32:39;;;;;;;16.70;6.50;;;;;;;;;;5065698;28;20039;-55
2020/12/02 09:35:07;;;;;;;15.38;6.40;;;;;;;;;;5067803;28;20063;-57
2020/12/02 09:37:33;;;;;;;19.02;6.25;;;;;;;;;;5065549;28;20063;-56
2020/12/02 09:40:00;;;;;;;16.70;5.70;;;;;;;;;;5065811;28;20380;-55
2020/12/02 09:42:29;;;;;;;21.92;7.32;;;;;;;;;;5066470;28;20017;-56
2020/12/02 09:45:12;;;;;;;11.80;5.55;;;;;;;;;;5066797;28;20029;-56
2020/12/02 09:47:38;;;;;;;16.77;5.72;;;;;;;;;;5065307;28;20032;-54
2020/12/02 09:50:08;;;;;;;17.73;7.45;;;;;;;;;;5067856;28;20028;-56
2020/12/02 09:52:42;;;;;;;17.45;6.28;;;;;;;;;;5065493;28;20453;-55
2020/12/02 09:55:11;;;;;;;19.98;7.25;;;;;;;;;;5063257;28;20025;-55
2020/12/02 09:57:38;;;;;;;17.33;6.18;;;;;;;;;;5063769;28;20021;-56
2020/12/02 10:00:05;;;;;;;17.23;7.20;;;;;;;;;;5066437;28;20108;-56
2020/12/02 10:02:50;;;;;;;14.88;6.90;;;;;;;;;;5067977;28;20079;-57
2020/12/02 10:05:35;;;;;;;23.08;7.32;;;;;;;;;;5082215;28;20029;-58
2020/12/02 10:08:20;;;;;;;18.70;6.60;;;;;;;;;;5066352;28;20028;-58
2020/12/02 10:10:58;;;;;;;11.75;5.90;;;;;;;;;;5067070;28;20047;-58
2020/12/02 10:13:40;;;;;;;13.68;6.30;;;;;;;;;;5058603;28;20033;-53
2020/12/02 10:16:06;;;;;;;28.35;7.63;;;;;;;;;;5059178;28;20056;-56
2020/12/02 10:18:53;;;;;;;17.33;6.60;;;;;;;;;;5056283;28;20032;-57
2020/12/02 10:21:26;;;;;;;11.95;5.90;;;;;;;;;;5056714;28;20474;-57
2020/12/02 10:24:12;;;;;;;16.05;7.32;;;;;;;;;;5061431;28;20040;-55
2020/12/02 10:26:41;;;;;;;20.70;9.35;;;;;;;;;;5074469;28;20052;-57
2020/12/02 10:29:09;;;;;;;22.20;7.90;;;;;;;;;;5059634;28;20397;-58
2020/12/02 10:31:42;;;;;;;20.98;8.38;;;;;;;;;;5057647;28;20082;-58
2020/12/02 10:34:18;;;;;;;17.40;6.85;;;;;;;;;;5058619;28;20486;-58
2020/12/02 10:36:52;;;;;;;22.08;5.80;;;;;;;;;;5058354;28;20428;-55
2020/12/02 10:39:21;;;;;;;19.50;5.85;;;;;;;;;;5061691;28;20432;-57
2020/12/02 10:41:57;;;;;;;16.40;5.25;;;;;;;;;;5061646;28;20056;-56
2020/12/02 10:44:39;;;;;;;22.67;5.82;;;;;;;;;;5060016;28;20016;-57
2020/12/02 10:47:24;;;;;;;14.23;4.95;;;;;;;;;;5064979;28;20028;-57
2020/12/02 10:49:50;;;;;;;25.35;5.60;;;;;;;;;;5065026;28;20140;-57
2020/12/02 10:52:18;;;;;;;18.00;5.47;;;;;;;;;;5064968;28;20154;-53
2020/12/02 10:54:46;;;;;;;15.70;4.90;;;;;;;;;;5065461;28;20104;-58
2020/12/02 10:57:30;;;;;;;19.92;4.82;;;;;;;;;;5062223;28;20032;-56
2020/12/02 10:59:57;;;;;;;17.58;4.35;;;;;;;;;;5058679;28;20013;-57
2020/12/02 11:02:27;;;;;;;17.45;5.07;;;;;;;;;;5074506;28;20040;-56
2020/12/02 11:04:54;;;;;;;24.05;4.65;;;;;;;;;;5080709;28;20138;-61
2020/12/02 11:07:24;;;;;;;14.75;4.70;;;;;;;;;;5076279;28;20093;-57
2020/12/02 11:10:16;;;;;;;15.70;4.68;;;;;;;;;;5065019;28;20501;-56
2020/12/02 11:13:01;;;;;;;19.58;4.40;;;;;;;;;;5054511;28;20048;-56
2020/12/02 11:15:29;;;;;;;17.17;4.43;;;;;;;;;;5062533;28;20127;-58
2020/12/02 11:18:00;;;;;;;15.25;4.40;;;;;;;;;;5066457;28;20098;-58
2020/12/02 11:20:29;;;;;;;12.95;4.22;;;;;;;;;;5066916;28;20025;-57
2020/12/02 11:22:56;;;;;;;24.95;5.28;;;;;;;;;;5063988;28;20044;-56
2020/12/02 11:25:27;;;;;;;21.08;4.70;;;;;;;;;;5062881;28;20037;-57
2020/12/02 11:27:54;;;;;;;19.65;4.30;;;;;;;;;;5062783;28;20039;-56
2020/12/02 11:30:27;;;;;;;23.67;5.45;;;;;;;;;;5062477;28;20026;-58
2020/12/02 11:32:58;;;;;;;18.67;4.97;;;;;;;;;;5066217;28;20020;-56
2020/12/02 11:35:30;;;;;;;14.77;4.32;;;;;;;;;;5065941;28;20119;-56
2020/12/02 11:37:59;;;;;;;16.75;4.97;;;;;;;;;;5070711;28;20133;-58
2020/12/02 11:41:01;;;;;;;15.20;5.28;;;;;;;;;;5067803;28;20106;-56
2020/12/02 11:43:33;;;;;;;17.50;4.80;;;;;;;;;;5026485;28;20079;-58
2020/12/02 11:46:00;;;;;;;31.02;5.85;;;;;;;;;;5026903;28;20041;-58
2020/12/02 11:48:52;;;;;;;22.92;5.65;;;;;;;;;;5026375;28;20482;-56
2020/12/02 11:51:23;;;;;;;16.95;4.68;;;;;;;;;;5025952;28;20042;-56
2020/12/02 11:53:54;;;;;;;13.77;4.97;;;;;;;;;;5011331;28;20033;-58
2020/12/02 11:56:30;;;;;;;19.77;5.65;;;;;;;;;;5028853;28;20034;-58
2020/12/02 11:59:01;;;;;;;24.15;6.13;;;;;;;;;;5029996;28;20120;-59
2020/12/02 12:01:33;;;;;;;17.50;5.03;;;;;;;;;;5026040;28;20084;-58
2020/12/02 12:04:29;;;;;;;20.02;5.32;;;;;;;;;;5026736;28;20492;-57
2020/12/02 12:06:56;;;;;;;19.67;6.50;;;;;;;;;;5026082;28;20052;-57
2020/12/02 12:09:33;;;;;;;19.42;4.82;;;;;;;;;;5027812;28;20040;-59
2020/12/02 12:12:02;;;;;;;17.50;5.20;;;;;;;;;;5026491;28;20056;-58
2020/12/02 12:14:49;;;;;;;16.65;5.00;;;;;;;;;;5028149;28;20150;-60
2020/12/02 12:17:35;;;;;;;19.42;4.47;;;;;;;;;;4968389;28;20038;-57
2020/12/02 12:20:12;;;;;;;19.65;4.07;;;;;;;;;;4978566;28;20074;-57
2020/12/02 12:22:43;;;;;;;12.35;5.05;;;;;;;;;;5005420;28;20160;-60
2020/12/02 12:25:12;;;;;;;17.13;4.10;;;;;;;;;;5003420;28;20038;-62
2020/12/02 12:27:40;;;;;;;15.15;5.72;;;;;;;;;;5005198;28;20574;-60
2020/12/02 12:30:06;;;;;;;20.00;5.35;;;;;;;;;;4992533;28;20097;-62
2020/12/02 12:32:55;;;;;;;14.82;5.72;;;;;;;;;;4996334;28;20437;-60
2020/12/02 12:35:23;;;;;;;16.40;4.35;;;;;;;;;;5005474;28;20042;-60
2020/12/02 12:38:10;;;;;;;9.90;4.53;;;;;;;;;;4999554;28;20117;-60
2020/12/02 12:40:48;;;;;;;16.38;4.97;;;;;;;;;;4997491;28;20061;-60
2020/12/02 12:43:17;;;;;;;18.23;5.50;;;;;;;;;;4998943;28;20459;-61
2020/12/02 12:45:45;;;;;;;16.52;6.22;;;;;;;;;;4984122;28;20076;-61
2020/12/02 12:48:16;;;;;;;16.80;5.97;;;;;;;;;;4987962;28;20467;-60
2020/12/02 12:50:44;;;;;;;17.15;7.00;;;;;;;;;;4982573;28;20041;-61
2020/12/02 12:53:10;;;;;;;14.55;6.47;;;;;;;;;;4990050;28;20034;-59
2020/12/02 12:55:36;;;;;;;19.17;7.50;;;;;;;;;;5063815;28;20952;-59
2020/12/02 12:58:09;;;;;;;25.23;9.10;;;;;;;;;;5061028;28;20017;-60
2020/12/02 13:00:37;;;;;;;19.10;8.93;;;;;;;;;;5061530;28;20048;-59
2020/12/02 13:03:11;;;;;;;19.58;9.45;;;;;;;;;;5058127;28;20036;-60
2020/12/02 13:05:38;;;;;;;24.90;10.25;;;;;;;;;;5067478;28;20024;-59
2020/12/02 13:08:10;;;;;;;24.08;10.57;;;;;;;;;;5087450;28;20575;-60
2020/12/02 13:11:11;;;;;;;23.52;9.35;;;;;;;;;;5062800;28;20068;-60
2020/12/02 13:13:37;;;;;;;22.77;9.27;;;;;;;;;;5045196;28;20128;-60
2020/12/02 13:16:36;;;;;;;22.75;9.02;;;;;;;;;;5045791;28;20037;-60
2020/12/02 13:19:02;;;;;;;27.83;9.77;;;;;;;;;;4935041;29;20043;-60
2020/12/02 13:21:45;;;;;;;18.55;9.52;;;;;;;;;;4934182;29;20098;-74
2020/12/02 13:24:16;;;;;;;20.27;10.52;;;;;;;;;;4935574;29;20039;-61
2020/12/02 13:26:43;;;;;;;18.65;9.63;;;;;;;;;;4942107;29;20059;-69
2020/12/02 13:29:14;;;;;;;17.65;7.88;;;;;;;;;;4941572;29;20080;-61
2020/12/02 13:32:01;;;;;;;23.42;5.53;;;;;;;;;;4940139;29;20171;-62
2020/12/02 13:34:27;;;;;;;16.63;5.55;;;;;;;;;;4931958;29;20031;-61
2020/12/02 13:36:54;;;;;;;20.95;4.88;;;;;;;;;;4939215;29;20020;-60
2020/12/02 13:39:20;;;;;;;14.73;4.78;;;;;;;;;;4935891;29;20512;-60
2020/12/02 13:41:48;;;;;;;13.98;4.18;;;;;;;;;;4946350;28;20539;-60
2020/12/02 13:44:15;;;;;;;15.10;4.43;;;;;;;;;;4942567;29;20032;-61
2020/12/02 13:46:41;;;;;;;18.45;4.32;;;;;;;;;;4943076;28;20023;-60
2020/12/02 13:49:11;;;;;;;16.80;3.60;;;;;;;;;;4973647;28;20042;-61
2020/12/02 13:51:41;;;;;;;18.08;4.15;;;;;;;;;;4969633;28;20144;-60
2020/12/02 13:54:09;;;;;;;16.75;3.42;;;;;;;;;;5005588;28;20047;-62
2020/12/02 13:56:41;;;;;;;17.42;3.20;;;;;;;;;;5072444;28;20047;-61
2020/12/02 13:59:20;;;;;;;12.52;2.47;;;;;;;;;;5075217;28;20024;-62
2020/12/02 14:01:55;;;;;;;16.67;3.33;;;;;;;;;;5064099;28;20056;-63
2020/12/02 14:04:43;;;;;;;9.60;2.30;;;;;;;;;;5063061;28;20486;-61
2020/12/02 14:07:11;;;;;;;14.82;2.90;;;;;;;;;;5059215;28;20037;-61
2020/12/02 14:09:47;;;;;;;7.30;2.08;;;;;;;;;;5054240;28;20021;-60
2020/12/02 14:12:18;;;;;;;15.77;2.80;;;;;;;;;;5054188;28;20040;-63
2020/12/02 14:14:45;;;;;;;6.47;1.17;;;;;;;;;;5054905;28;20104;-60
2020/12/02 14:17:12;;;;;;;7.60;1.50;;;;;;;;;;5067205;28;20036;-60
2020/12/02 14:19:38;;;;;;;6.40;1.08;;;;;;;;;;5066641;28;20029;-61
2020/12/02 14:22:06;;;;;;;9.93;1.20;;;;;;;;;;5066598;28;20024;-61
2020/12/02 14:24:33;;;;;;;12.65;2.38;;;;;;;;;;5066627;28;20021;-61
2020/12/02 14:27:00;;;;;;;7.55;0.98;;;;;;;;;;5067074;28;20367;-61
2020/12/02 14:29:26;;;;;;;4.65;0.80;;;;;;;;;;5067058;28;20032;-60
2020/12/02 14:31:53;;;;;;;6.07;1.25;;;;;;;;;;5071823;28;20033;-60
2020/12/02 14:34:19;;;;;;;2.75;0.77;;;;;;;;;;5065799;28;20025;-60
2020/12/02 14:36:45;;;;;;;6.18;1.80;;;;;;;;;;5061877;28;20379;-62
2020/12/02 14:39:12;;;;;;;3.85;0.63;;;;;;;;;;5065295;28;20024;-61
2020/12/02 14:41:38;;;;;;;6.05;0.80;;;;;;;;;;5069013;28;20497;-61
2020/12/02 14:44:04;;;;;;;3.55;0.60;;;;;;;;;;5072975;28;20086;-61
2020/12/02 14:46:30;;;;;;;3.83;0.80;;;;;;;;;;5059594;28;20029;-60
2020/12/02 14:48:56;;;;;;;5.20;1.00;;;;;;;;;;5057139;28;20478;-60
2020/12/02 14:51:23;;;;;;;4.18;1.02;;;;;;;;;;5050736;28;20036;-60
2020/12/02 14:53:49;;;;;;;7.00;1.00;;;;;;;;;;5073617;28;20036;-64
2020/12/02 14:56:17;;;;;;;4.88;1.10;;;;;;;;;;5064412;28;20028;-60
2020/12/02 14:58:46;;;;;;;5.50;0.88;;;;;;;;;;5068893;28;20107;-60
2020/12/02 15:01:13;;;;;;;10.73;1.27;;;;;;;;;;5066866;28;20505;-62
2020/12/02 15:03:40;;;;;;;3.38;0.90;;;;;;;;;;5065932;28;20024;-60
2020/12/02 15:06:22;;;;;;;6.30;0.85;;;;;;;;;;5054491;28;20066;-63
2020/12/02 15:09:03;;;;;;;5.53;1.10;;;;;;;;;;5063702;28;20021;-61
2020/12/02 15:11:44;;;;;;;6.38;1.80;;;;;;;;;;5060043;28;20075;-61
2020/12/02 15:14:12;;;;;;;9.90;1.25;;;;;;;;;;5060741;28;20073;-60
2020/12/02 15:16:44;;;;;;;7.18;1.20;;;;;;;;;;5070495;28;20507;-61
2020/12/02 15:19:11;;;;;;;7.50;1.50;;;;;;;;;;5069834;28;20094;-65
2020/12/02 15:21:37;;;;;;;9.27;1.63;;;;;;;;;;5070042;28;20033;-61
2020/12/02 15:24:05;;;;;;;7.60;1.30;;;;;;;;;;5067604;28;20032;-63
2020/12/02 15:26:31;;;;;;;7.80;1.58;;;;;;;;;;5054669;28;20052;-63
2020/12/02 15:28:58;;;;;;;7.85;2.10;;;;;;;;;;5055862;28;20028;-64
2020/12/02 15:31:24;;;;;;;7.57;1.20;;;;;;;;;;5063224;28;20044;-62
2020/12/02 15:33:51;;;;;;;6.93;1.13;;;;;;;;;;5064556;28;20027;-61
2020/12/02 15:36:24;;;;;;;5.15;1.15;;;;;;;;;;5053331;28;20393;-61
2020/12/02 15:38:59;;;;;;;6.18;1.25;;;;;;;;;;5053129;28;20021;-61
2020/12/02 15:41:28;;;;;;;6.65;1.42;;;;;;;;;;5068028;28;20036;-66
2020/12/02 15:44:13;;;;;;;8.52;1.85;;;;;;;;;;5068253;28;20029;-61
2020/12/02 15:46:39;;;;;;;6.80;1.67;;;;;;;;;;5065484;28;20024;-60
2020/12/02 15:49:11;;;;;;;7.05;1.25;;;;;;;;;;5061931;28;20048;-61
2020/12/02 15:52:01;;;;;;;4.75;1.00;;;;;;;;;;5054788;28;20041;-61
2020/12/02 15:54:33;;;;;;;4.85;1.05;;;;;;;;;;5064393;28;20025;-60
2020/12/02 15:57:21;;;;;;;6.40;1.17;;;;;;;;;;5067296;28;20060;-60
2020/12/02 15:59:54;;;;;;;7.50;1.27;;;;;;;;;;5051326;28;20070;-61
2020/12/02 16:02:20;;;;;;;5.55;1.50;;;;;;;;;;5059828;28;20076;-66
2020/12/02 16:04:47;;;;;;;9.63;1.70;;;;;;;;;;5056253;28;20020;-63
2020/12/02 16:07:25;;;;;;;5.60;1.48;;;;;;;;;;5052554;28;20025;-62
2020/12/02 16:09:53;;;;;;;7.03;1.50;;;;;;;;;;5054454;28;20367;-63
2020/12/02 16:12:20;;;;;;;9.65;1.55;;;;;;;;;;5050402;28;20083;-63
2020/12/02 16:14:46;;;;;;;4.40;1.02;;;;;;;;;;5055021;28;20033;-61
2020/12/02 16:17:13;;;;;;;8.30;1.10;;;;;;;;;;5065355;28;20025;-61
2020/12/02 16:19:43;;;;;;;4.63;0.88;;;;;;;;;;5063737;28;20020;-62
2020/12/02 16:22:16;;;;;;;13.40;1.38;;;;;;;;;;5060482;28;20493;-64
2020/12/02 16:24:43;;;;;;;7.10;1.13;;;;;;;;;;5058674;28;20124;-61
2020/12/02 16:27:09;;;;;;;7.85;1.38;;;;;;;;;;5053143;28;20094;-65
2020/12/02 16:29:35;;;;;;;6.50;0.98;;;;;;;;;;5055906;28;20036;-62
2020/12/02 16:32:03;;;;;;;3.85;1.25;;;;;;;;;;5055044;28;20060;-61
2020/12/02 16:34:30;;;;;;;5.35;0.85;;;;;;;;;;5050578;28;20151;-60
2020/12/02 16:36:57;;;;;;;2.95;1.00;;;;;;;;;;5055959;28;20029;-59
2020/12/02 16:39:26;;;;;;;4.03;1.02;;;;;;;;;;5053340;28;20020;-59
2020/12/02 16:42:12;;;;;;;5.13;0.90;;;;;;;;;;5048786;28;20478;-59
2020/12/02 16:45:03;;;;;;;5.35;1.00;;;;;;;;;;5049423;28;20716;-60
2020/12/02 16:47:38;;;;;;;9.02;1.70;;;;;;;;;;5057101;28;20029;-60
2020/12/02 16:50:07;;;;;;;6.28;1.00;;;;;;;;;;5063862;28;20020;-59
2020/12/02 16:52:42;;;;;;;7.75;1.52;;;;;;;;;;5060745;28;20028;-60
2020/12/02 16:55:08;;;;;;;4.88;0.90;;;;;;;;;;5060221;28;20135;-60
2020/12/02 16:57:38;;;;;;;9.60;1.25;;;;;;;;;;5056298;28;20409;-59
2020/12/02 17:00:13;;;;;;;2.85;0.80;;;;;;;;;;5053579;28;20099;-63
2020/12/02 17:02:44;;;;;;;3.40;1.00;;;;;;;;;;5058222;28;20591;-59
2020/12/02 17:05:10;;;;;;;14.55;5.32;;;;;;;;;;5053336;28;20033;-59
2020/12/02 17:07:38;;;;;;;34.67;26.60;;;;;;;;;;5053081;28;20132;-59
2020/12/02 17:10:06;;;;;;;14.25;6.15;;;;;;;;;;5053585;28;20470;-61
2020/12/02 17:12:35;;;;;;;8.55;2.65;;;;;;;;;;5062836;28;20024;-59
2020/12/02 17:15:25;;;;;;;7.03;1.80;;;;;;;;;;5050473;28;20040;-60
2020/12/02 17:17:57;;;;;;;6.53;1.80;;;;;;;;;;5049489;28;20036;-59
2020/12/02 17:20:26;;;;;;;9.43;2.03;;;;;;;;;;5049843;28;20512;-60
2020/12/02 17:23:13;;;;;;;8.55;1.38;;;;;;;;;;5062710;28;20029;-60
2020/12/02 17:25:54;;;;;;;5.53;1.30;;;;;;;;;;5064225;28;20486;-60
2020/12/02 17:28:39;;;;;;;4.90;1.70;;;;;;;;;;5065382;28;20028;-60
2020/12/02 17:31:34;;;;;;;9.27;1.97;;;;;;;;;;5064641;28;20036;-59
2020/12/02 17:34:14;;;;;;;5.53;1.63;;;;;;;;;;5059940;28;20079;-59
2020/12/02 17:36:58;;;;;;;8.93;1.60;;;;;;;;;;5066161;28;20111;-59
2020/12/02 17:39:54;;;;;;;9.07;2.28;;;;;;;;;;5062757;28;20032;-59
2020/12/02 17:42:45;;;;;;;5.82;1.20;;;;;;;;;;5062708;28;20074;-60
2020/12/02 17:45:25;;;;;;;10.32;1.17;;;;;;;;;;5063122;28;20520;-60
2020/12/02 17:48:03;;;;;;;12.18;1.80;;;;;;;;;;5064301;28;20037;-59
2020/12/02 17:50:42;;;;;;;21.08;2.80;;;;;;;;;;5066237;28;20037;-60
2020/12/02 17:53:12;;;;;;;18.90;2.60;;;;;;;;;;5058066;28;20052;-60
2020/12/02 17:55:38;;;;;;;27.48;4.55;;;;;;;;;;5065874;28;20012;-60
2020/12/02 17:58:16;;;;;;;27.40;6.80;;;;;;;;;;5057715;28;20088;-60
2020/12/02 18:00:57;;;;;;;19.58;3.63;;;;;;;;;;5064844;28;20086;-59
2020/12/02 18:03:53;;;;;;;19.17;3.42;;;;;;;;;;5064425;28;20116;-59
2020/12/02 18:06:19;;;;;;;23.87;3.27;;;;;;;;;;5047611;28;20121;-59
2020/12/02 18:09:03;;;;;;;24.27;3.70;;;;;;;;;;5055718;28;20055;-58
2020/12/02 18:11:34;;;;;;;25.13;3.85;;;;;;;;;;5063472;28;20079;-59
2020/12/02 18:14:21;;;;;;;45.35;6.88;;;;;;;;;;5066120;28;20028;-62
2020/12/02 18:17:10;;;;;;;35.75;6.93;;;;;;;;;;5066326;28;20505;-60
2020/12/02 18:19:39;;;;;;;32.85;6.95;;;;;;;;;;5059313;28;20025;-59
2020/12/02 18:22:15;;;;;;;30.45;6.43;;;;;;;;;;5064464;28;20043;-60
2020/12/02 18:24:57;;;;;;;23.88;3.45;;;;;;;;;;5064207;28;20020;-57
2020/12/02 18:27:41;;;;;;;29.40;4.40;;;;;;;;;;5067133;28;20028;-59
2020/12/02 18:30:07;;;;;;;27.38;3.75;;;;;;;;;;5065421;28;20453;-59
2020/12/02 18:32:46;;;;;;;20.98;3.42;;;;;;;;;;5067869;28;20044;-59
2020/12/02 18:35:30;;;;;;;25.90;3.72;;;;;;;;;;5070002;28;20032;-59
2020/12/02 18:38:05;;;;;;;26.02;3.58;;;;;;;;;;5069380;28;20039;-59
2020/12/02 18:40:43;;;;;;;21.67;2.80;;;;;;;;;;5066024;28;20079;-60
2020/12/02 18:43:28;;;;;;;37.28;3.28;;;;;;;;;;5066634;28;20104;-59
2020/12/02 18:45:56;;;;;;;22.33;3.10;;;;;;;;;;5067808;28;20051;-59
2020/12/02 18:48:26;;;;;;;23.00;3.15;;;;;;;;;;5066049;28;20425;-59
2020/12/02 18:50:52;;;;;;;24.20;2.97;;;;;;;;;;5068245;28;20086;-59
2020/12/02 18:53:18;;;;;;;14.00;2.67;;;;;;;;;;5069870;28;20128;-59
2020/12/02 18:55:44;;;;;;;23.27;2.67;;;;;;;;;;5065734;28;20082;-59
2020/12/02 18:58:15;;;;;;;25.55;3.20;;;;;;;;;;5066668;28;20047;-60
2020/12/02 19:00:41;;;;;;;25.85;3.78;;;;;;;;;;5070016;28;20103;-59
2020/12/02 19:03:17;;;;;;;31.88;5.90;;;;;;;;;;5068425;28;20028;-59
2020/12/02 19:05:43;;;;;;;22.35;2.65;;;;;;;;;;5069782;28;20045;-59
2020/12/02 19:08:26;;;;;;;20.63;3.35;;;;;;;;;;5072199;28;20028;-59
2020/12/02 19:10:56;;;;;;;15.38;2.00;;;;;;;;;;5071631;28;20383;-59
2020/12/02 19:13:22;;;;;;;18.52;3.20;;;;;;;;;;5068182;28;20052;-59
2020/12/02 19:16:07;;;;;;;21.40;2.75;;;;;;;;;;5071504;28;20044;-59
2020/12/02 19:18:42;;;;;;;22.20;2.47;;;;;;;;;;5068395;28;20478;-59
2020/12/02 19:21:08;;;;;;;;;;;;;;;;;;5070700;28;20028;-58
2020/12/02 19:23:34;;;;;;;;;;;;;;;;;;5072765;28;19958;-59
2020/12/02 19:26:06;;;;;;;24.35;3.15;;;;;;;;;;5071448;28;19908;-59
2020/12/02 19:28:39;;;;;;;23.38;3.83;;;;;;;;;;5069185;28;20036;-59
2020/12/02 19:31:15;;;;;;;13.85;3.20;;;;;;;;;;5067213;28;20531;-59
2020/12/02 19:33:41;;;;;;;23.27;3.83;;;;;;;;;;5067141;28;20033;-59
2020/12/02 19:36:25;;;;;;;23.35;4.97;;;;;;;;;;5068255;28;20432;-59
2020/12/02 19:38:55;;;;;;;16.95;3.25;;;;;;;;;;5065923;28;20032;-60
2020/12/02 19:41:27;;;;;;;23.95;3.38;;;;;;;;;;5072286;28;20664;-60
2020/12/02 19:43:53;;;;;;;20.60;4.82;;;;;;;;;;5069516;28;20028;-60
2020/12/02 19:46:28;;;;;;;19.33;3.45;;;;;;;;;;5071040;28;20055;-59
2020/12/02 19:48:55;;;;;;;23.42;4.75;;;;;;;;;;5070762;28;20466;-59
2020/12/02 19:51:21;;;;;;;18.13;3.67;;;;;;;;;;5070892;28;20086;-59
2020/12/02 19:53:52;;;;;;;22.75;5.15;;;;;;;;;;5069890;28;20512;-59
2020/12/02 19:56:26;;;;;;;23.50;3.15;;;;;;;;;;5070206;28;20024;-60
2020/12/02 19:59:28;;;;;;;21.67;3.15;;;;;;;;;;5068623;28;20037;-60
2020/12/02 20:02:02;;;;;;;18.35;3.78;;;;;;;;;;5046722;28;20053;-60
2020/12/02 20:04:31;;;;;;;14.88;4.25;;;;;;;;;;5046702;28;20136;-60
2020/12/02 20:07:12;;;;;;;31.63;5.22;;;;;;;;;;5047071;28;20095;-61
2020/12/02 20:09:57;;;;;;;25.55;4.57;;;;;;;;;;5046312;28;20045;-61
2020/12/02 20:12:34;;;;;;;19.33;4.22;;;;;;;;;;5046367;28;20445;-63
2020/12/02 20:15:21;;;;;;;27.25;4.15;;;;;;;;;;5047133;28;20418;-60
2020/12/02 20:18:10;;;;;;;28.02;7.32;;;;;;;;;;5046870;28;20036;-61
2020/12/02 20:20:49;;;;;;;26.67;7.53;;;;;;;;;;5036639;28;20075;-61
2020/12/02 20:23:34;;;;;;;18.65;3.17;;;;;;;;;;5046670;28;20580;-60
2020/12/02 20:26:02;;;;;;;25.13;5.82;;;;;;;;;;5046946;28;20383;-59
2020/12/02 20:28:32;;;;;;;39.03;8.98;;;;;;;;;;5046046;28;20098;-60
2020/12/02 20:31:02;;;;;;;27.50;4.50;;;;;;;;;;5046118;28;20052;-60
2020/12/02 20:33:33;;;;;;;24.00;4.55;;;;;;;;;;5045794;28;20037;-59
2020/12/02 20:36:04;;;;;;;26.75;6.13;;;;;;;;;;5055293;28;20500;-59
2020/12/02 20:38:31;;;;;;;13.63;3.38;;;;;;;;;;5065988;28;20033;-59
2020/12/02 20:40:57;;;;;;;17.77;4.18;;;;;;;;;;5067873;28;20020;-59
2020/12/02 20:43:24;;;;;;;19.50;3.17;;;;;;;;;;5066125;28;20118;-59
2020/12/02 20:45:54;;;;;;;24.17;5.35;;;;;;;;;;5065684;28;20025;-59
2020/12/02 20:48:34;;;;;;;16.70;3.38;;;;;;;;;;5066210;28;20040;-59
2020/12/02 20:51:30;;;;;;;16.83;4.15;;;;;;;;;;5050896;28;20028;-59
2020/12/02 20:53:56;;;;;;;17.85;2.55;;;;;;;;;;5021931;28;20461;-59
2020/12/02 20:56:27;;;;;;;20.98;2.97;;;;;;;;;;5026600;28;20520;-61
2020/12/02 20:59:07;;;;;;;14.48;2.33;;;;;;;;;;5026742;28;20191;-59
2020/12/02 21:01:34;;;;;;;14.25;2.53;;;;;;;;;;5025536;28;20183;-59
2020/12/02 21:04:01;;;;;;;16.30;2.50;;;;;;;;;;5025625;28;20517;-60
2020/12/02 21:06:28;;;;;;;19.00;2.60;;;;;;;;;;5025439;28;20075;-61
2020/12/02 21:08:54;;;;;;;14.18;2.03;;;;;;;;;;5026002;28;20561;-62
2020/12/02 21:11:20;;;;;;;20.25;3.70;;;;;;;;;;5026642;28;20158;-61